Time;durP1;ratioP1;P1;durP2;ratioP2;P2;SDS_P1;SDS_P2;PMS_P1;PMS_P2;Temp;Humidity;BMP_temperature;BMP_pressure;BME280_temperature;BME280_humidity;BME280_pressure;Samples;Min_cycle;Max_cycle;Signal;HPM_P1;HPM_P2
2023/08/04 00:02:05;;;;;;;8.18;0.80;;;15.90;99.90;;;;;;5032445;28;20625;-63
2023/08/04 00:04:31;;;;;;;6.28;0.95;;;16.00;99.90;;;;;;5021244;28;20268;-63
2023/08/04 00:06:57;;;;;;;7.47;0.65;;;15.80;99.90;;;;;;5034160;28;20036;-64
2023/08/04 00:09:22;;;;;;;6.03;0.65;;;15.80;99.90;;;;;;5019809;28;20045;-64
2023/08/04 00:11:48;;;;;;;6.18;0.98;;;15.80;99.90;;;;;;5015088;28;20114;-64
2023/08/04 00:14:14;;;;;;;7.72;0.90;;;15.90;99.90;;;;;;5001250;28;20155;-64
2023/08/04 00:16:39;;;;;;;13.05;1.05;;;15.80;99.90;;;;;;5039050;28;20040;-65
2023/08/04 00:19:05;;;;;;;6.50;0.90;;;15.80;99.90;;;;;;5017928;28;20533;-64
2023/08/04 00:21:31;;;;;;;6.22;0.63;;;15.80;99.90;;;;;;5037459;28;20574;-64
2023/08/04 00:23:58;;;;;;;8.95;0.95;;;15.70;99.90;;;;;;5036999;28;20503;-64
2023/08/04 00:26:23;;;;;;;8.60;1.35;;;15.70;99.90;;;;;;5020823;28;20041;-64
2023/08/04 00:28:49;;;;;;;7.95;0.70;;;15.70;99.90;;;;;;5036501;28;20160;-64
2023/08/04 00:31:15;;;;;;;6.70;0.70;;;15.60;99.90;;;;;;5013266;28;20060;-64
2023/08/04 00:33:40;;;;;;;7.03;0.82;;;15.50;99.90;;;;;;5018960;28;20757;-64
2023/08/04 00:36:06;;;;;;;6.35;1.02;;;15.50;99.90;;;;;;5037918;28;20041;-64
2023/08/04 00:38:32;;;;;;;8.52;0.90;;;15.50;99.90;;;;;;5015562;28;20112;-65
2023/08/04 00:40:57;;;;;;;5.72;0.80;;;15.50;99.90;;;;;;5017773;28;20040;-64
2023/08/04 00:43:23;;;;;;;9.00;1.10;;;15.50;99.90;;;;;;5019198;28;20315;-64
2023/08/04 00:45:49;;;;;;;5.40;0.80;;;15.60;99.90;;;;;;5034445;28;20295;-63
2023/08/04 00:48:15;;;;;;;5.57;0.70;;;15.60;99.90;;;;;;5034439;28;20036;-64
2023/08/04 00:50:41;;;;;;;6.88;0.85;;;15.60;99.90;;;;;;5018490;28;20056;-64
2023/08/04 00:53:09;;;;;;;11.75;1.00;;;15.70;99.90;;;;;;5033998;28;20077;-65
2023/08/04 00:55:35;;;;;;;5.30;0.70;;;15.70;99.90;;;;;;5016477;28;20083;-64
2023/08/04 00:58:01;;;;;;;5.95;0.73;;;15.60;99.90;;;;;;5036649;28;20557;-64
2023/08/04 01:00:27;;;;;;;7.30;0.85;;;15.60;99.90;;;;;;5019693;28;20032;-64
2023/08/04 01:02:54;;;;;;;8.20;1.08;;;15.60;99.90;;;;;;5033294;28;20044;-64
2023/08/04 01:05:21;;;;;;;5.00;0.70;;;15.60;99.90;;;;;;5032142;28;20120;-65
2023/08/04 01:08:04;;;;;;;6.53;1.05;;;15.60;99.90;;;;;;5035671;28;20196;-64
2023/08/04 01:10:46;;;;;;;10.07;0.93;;;15.70;99.90;;;;;;5028277;28;20080;-64
2023/08/04 01:13:14;;;;;;;5.95;0.90;;;15.60;99.90;;;;;;5034614;28;20068;-64
2023/08/04 01:15:41;;;;;;;5.18;0.80;;;15.70;99.90;;;;;;5035711;28;20123;-65
2023/08/04 01:18:07;;;;;;;12.77;1.08;;;15.70;99.90;;;;;;5032694;28;20056;-65
2023/08/04 01:20:32;;;;;;;6.25;0.93;;;15.70;99.90;;;;;;5016746;28;20602;-65
2023/08/04 01:22:58;;;;;;;6.47;1.00;;;15.70;99.90;;;;;;5033832;28;20047;-65
2023/08/04 01:25:29;;;;;;;6.57;0.82;;;15.60;99.90;;;;;;5033312;28;20428;-64
2023/08/04 01:28:00;;;;;;;6.82;0.82;;;15.60;99.90;;;;;;5036100;28;20238;-65
2023/08/04 01:30:28;;;;;;;5.55;0.65;;;15.60;99.90;;;;;;5036132;28;21777;-65
2023/08/04 01:32:53;;;;;;;4.20;0.70;;;15.70;99.90;;;;;;5033629;28;20413;-64
2023/08/04 01:35:19;;;;;;;8.02;0.90;;;15.60;99.90;;;;;;5034534;28;21146;-65
2023/08/04 01:37:45;;;;;;;5.05;0.88;;;15.60;99.90;;;;;;5036322;28;20340;-65
2023/08/04 01:40:11;;;;;;;7.32;1.13;;;15.70;99.90;;;;;;5017741;28;20355;-65
2023/08/04 01:42:37;;;;;;;5.07;0.70;;;15.70;99.90;;;;;;5031684;28;20330;-65
2023/08/04 01:45:03;;;;;;;6.65;0.90;;;15.60;99.90;;;;;;5018845;28;20455;-65
2023/08/04 01:47:29;;;;;;;6.25;1.10;;;15.70;99.90;;;;;;5034867;28;20059;-64
2023/08/04 01:49:55;;;;;;;5.75;1.00;;;15.60;99.90;;;;;;5015660;28;20037;-65
2023/08/04 01:52:23;;;;;;;5.70;1.08;;;15.70;99.90;;;;;;5033555;28;20058;-65
2023/08/04 01:54:48;;;;;;;6.68;0.80;;;15.60;99.90;;;;;;5032474;28;20033;-64
2023/08/04 01:57:14;;;;;;;10.20;0.90;;;15.70;99.90;;;;;;5034599;28;20223;-64
2023/08/04 01:59:40;;;;;;;9.45;1.40;;;15.70;99.90;;;;;;5030728;28;20040;-64
2023/08/04 02:02:07;;;;;;;5.43;0.90;;;15.60;99.90;;;;;;5018954;28;20285;-64
2023/08/04 02:04:32;;;;;;;6.57;1.00;;;15.70;99.90;;;;;;5033713;28;20340;-65
2023/08/04 02:06:58;;;;;;;7.70;0.80;;;15.60;99.90;;;;;;5033060;28;20067;-64
2023/08/04 02:09:27;;;;;;;5.50;0.70;;;15.70;99.90;;;;;;5037115;28;20061;-64
2023/08/04 02:11:54;;;;;;;4.60;0.85;;;15.70;99.90;;;;;;5036125;28;20049;-64
2023/08/04 02:14:19;;;;;;;5.10;0.55;;;15.70;99.90;;;;;;5038729;28;20052;-64
2023/08/04 02:16:45;;;;;;;6.18;0.60;;;15.60;99.90;;;;;;5020306;28;20520;-65
2023/08/04 02:19:11;;;;;;;3.45;0.60;;;15.60;99.90;;;;;;5035897;28;20080;-64
2023/08/04 02:21:37;;;;;;;3.95;0.50;;;15.60;99.90;;;;;;5036532;28;20291;-64
2023/08/04 02:24:03;;;;;;;5.68;0.68;;;15.60;99.90;;;;;;5003849;28;20037;-64
2023/08/04 02:26:29;;;;;;;6.63;0.70;;;15.50;99.90;;;;;;5039701;28;20128;-64
2023/08/04 02:28:55;;;;;;;5.72;0.60;;;15.50;99.90;;;;;;5018636;28;20063;-64
2023/08/04 02:31:23;;;;;;;4.57;0.57;;;15.40;99.90;;;;;;5033336;28;20055;-64
2023/08/04 02:33:49;;;;;;;4.55;0.50;;;15.30;99.90;;;;;;5033763;28;20580;-64
2023/08/04 02:36:16;;;;;;;2.95;0.60;;;15.30;99.90;;;;;;5035873;28;20442;-65
2023/08/04 02:38:42;;;;;;;5.95;0.75;;;15.30;99.90;;;;;;5022451;28;20041;-64
2023/08/04 02:41:09;;;;;;;5.45;0.80;;;15.20;99.90;;;;;;5034268;28;20043;-64
2023/08/04 02:43:35;;;;;;;4.40;1.05;;;15.10;99.90;;;;;;5030611;28;20143;-64
2023/08/04 02:46:01;;;;;;;8.85;1.52;;;15.10;99.90;;;;;;5037753;28;20036;-64
2023/08/04 02:48:27;;;;;;;7.30;1.75;;;14.90;99.90;;;;;;5019071;28;20045;-64
2023/08/04 02:51:10;;;;;;;5.65;1.23;;;15.00;99.90;;;;;;5035107;28;20094;-64
2023/08/04 02:53:39;;;;;;;6.57;1.63;;;15.00;99.90;;;;;;5034513;28;20036;-65
2023/08/04 02:56:09;;;;;;;6.28;1.60;;;14.90;99.90;;;;;;5030474;28;20106;-64
2023/08/04 02:58:35;;;;;;;5.70;1.13;;;14.90;99.90;;;;;;5035775;28;20301;-66
2023/08/04 03:01:00;;;;;;;4.45;1.70;;;14.90;99.90;;;;;;5037627;28;20446;-65
2023/08/04 03:03:26;;;;;;;7.70;1.65;;;15.00;99.90;;;;;;5016542;28;20044;-65
2023/08/04 03:05:55;;;;;;;9.38;1.55;;;15.00;99.90;;;;;;5016638;28;20064;-65
2023/08/04 03:08:21;;;;;;;6.65;1.52;;;14.90;99.90;;;;;;5035885;28;20052;-65
2023/08/04 03:10:47;;;;;;;5.20;1.50;;;14.80;99.90;;;;;;5034660;28;20434;-65
2023/08/04 03:13:12;;;;;;;7.30;1.77;;;14.90;99.90;;;;;;5018081;28;20337;-64
2023/08/04 03:15:38;;;;;;;7.45;1.90;;;14.90;99.90;;;;;;5020891;28;20040;-65
2023/08/04 03:18:04;;;;;;;7.88;1.95;;;15.10;99.90;;;;;;5024516;28;20040;-65
2023/08/04 03:20:35;;;;;;;4.78;1.27;;;14.90;99.90;;;;;;5030030;28;20037;-65
2023/08/04 03:23:00;;;;;;;8.55;1.83;;;15.10;99.90;;;;;;5037289;28;20370;-64
2023/08/04 03:25:26;;;;;;;5.20;1.23;;;14.90;99.90;;;;;;5035578;28;20045;-64
2023/08/04 03:27:51;;;;;;;4.38;1.10;;;15.10;99.90;;;;;;5017164;28;20551;-64
2023/08/04 03:30:17;;;;;;;3.50;1.02;;;14.90;99.90;;;;;;5018567;28;20278;-64
2023/08/04 03:32:43;;;;;;;5.70;1.00;;;15.10;99.90;;;;;;5036930;28;20028;-64
2023/08/04 03:35:09;;;;;;;9.85;1.30;;;15.00;99.90;;;;;;5035230;28;20080;-64
2023/08/04 03:37:36;;;;;;;8.55;1.10;;;14.90;99.90;;;;;;5024305;28;20044;-64
2023/08/04 03:40:02;;;;;;;6.10;1.20;;;14.90;99.90;;;;;;5013759;28;20101;-63
2023/08/04 03:42:27;;;;;;;4.18;1.42;;;14.80;99.90;;;;;;5032325;28;20335;-64
2023/08/04 03:44:53;;;;;;;7.93;1.35;;;15.00;99.90;;;;;;5034125;28;20297;-64
2023/08/04 03:47:19;;;;;;;7.75;1.13;;;14.80;99.90;;;;;;5036047;28;20036;-65
2023/08/04 03:49:44;;;;;;;4.43;1.10;;;15.00;99.90;;;;;;5018029;28;20037;-64
2023/08/04 03:52:10;;;;;;;5.30;1.20;;;15.00;99.90;;;;;;5018349;28;20399;-64
2023/08/04 03:54:36;;;;;;;9.55;1.00;;;15.00;99.90;;;;;;5038042;28;20509;-64
2023/08/04 03:57:02;;;;;;;6.53;1.00;;;15.00;99.90;;;;;;5015837;28;20236;-64
2023/08/04 03:59:28;;;;;;;5.10;1.42;;;15.10;99.90;;;;;;5035479;28;20037;-64
2023/08/04 04:01:53;;;;;;;6.85;1.23;;;15.10;99.90;;;;;;5017671;28;20072;-65
2023/08/04 04:04:19;;;;;;;6.53;1.42;;;14.90;99.90;;;;;;5035691;28;20037;-64
2023/08/04 04:06:45;;;;;;;6.28;1.38;;;15.00;99.90;;;;;;5036450;28;20298;-64
2023/08/04 04:09:11;;;;;;;4.50;0.90;;;15.00;99.90;;;;;;5016691;28;20344;-64
2023/08/04 04:11:37;;;;;;;3.58;0.85;;;15.00;99.90;;;;;;5035726;28;20079;-65
2023/08/04 04:14:02;;;;;;;3.90;0.82;;;15.10;99.90;;;;;;5032450;28;20045;-65
2023/08/04 04:16:30;;;;;;;4.05;0.80;;;15.20;99.90;;;;;;5034445;28;20529;-64
2023/08/04 04:18:56;;;;;;;2.88;0.50;;;15.20;99.90;;;;;;5036034;28;20838;-65
2023/08/04 04:21:21;;;;;;;3.67;0.65;;;15.20;99.90;;;;;;5032674;28;20044;-64
2023/08/04 04:23:47;;;;;;;3.83;0.63;;;15.10;99.90;;;;;;5028155;28;20064;-64
2023/08/04 04:26:13;;;;;;;3.10;0.50;;;15.30;99.90;;;;;;5039041;28;20048;-64
2023/08/04 04:28:38;;;;;;;3.13;0.65;;;15.30;99.90;;;;;;5034388;28;20329;-63
2023/08/04 04:31:04;;;;;;;2.55;0.60;;;15.20;99.90;;;;;;5034724;28;20507;-64
2023/08/04 04:33:30;;;;;;;3.80;0.80;;;15.10;99.90;;;;;;5032312;28;20051;-64
2023/08/04 04:35:56;;;;;;;1.98;0.80;;;15.00;99.90;;;;;;5034168;28;20378;-64
2023/08/04 04:38:27;;;;;;;5.07;0.80;;;15.00;99.90;;;;;;5033129;28;20071;-63
2023/08/04 04:41:00;;;;;;;2.67;0.77;;;14.90;99.90;;;;;;5035415;28;20416;-64
2023/08/04 04:43:27;;;;;;;3.05;0.73;;;15.10;99.90;;;;;;5035249;28;20044;-63
2023/08/04 04:45:53;;;;;;;1.98;1.13;;;14.80;99.90;;;;;;5037715;28;20043;-64
2023/08/04 04:48:20;;;;;;;2.58;0.80;;;14.80;99.90;;;;;;5031397;28;20048;-64
2023/08/04 04:50:46;;;;;;;4.68;1.10;;;14.70;99.90;;;;;;5012776;28;20483;-64
2023/08/04 04:53:12;;;;;;;4.53;0.90;;;14.60;99.90;;;;;;5017133;28;20041;-64
2023/08/04 04:55:38;;;;;;;2.45;1.00;;;14.80;99.90;;;;;;5031315;28;20152;-64
2023/08/04 04:58:04;;;;;;;2.90;0.80;;;14.70;99.90;;;;;;5033368;28;20109;-64
2023/08/04 05:00:31;;;;;;;1.92;0.88;;;14.70;99.90;;;;;;5035773;28;20040;-65
2023/08/04 05:02:57;;;;;;;3.38;0.80;;;14.60;99.90;;;;;;5020485;28;20090;-63
2023/08/04 05:05:23;;;;;;;4.60;1.27;;;14.80;99.90;;;;;;5032048;28;20052;-64
2023/08/04 05:07:49;;;;;;;2.72;0.80;;;14.80;99.90;;;;;;5035697;28;20060;-63
2023/08/04 05:10:14;;;;;;;2.75;0.90;;;14.70;99.90;;;;;;5033494;28;20370;-64
2023/08/04 05:12:40;;;;;;;2.35;0.60;;;14.70;99.90;;;;;;5013423;28;20111;-64
2023/08/04 05:15:06;;;;;;;3.78;0.80;;;14.90;99.90;;;;;;5036376;28;21206;-64
2023/08/04 05:17:33;;;;;;;1.98;0.75;;;14.80;99.90;;;;;;5013754;28;20096;-64
2023/08/04 05:19:58;;;;;;;1.48;0.60;;;14.90;99.90;;;;;;5031659;28;20036;-64
2023/08/04 05:22:24;;;;;;;2.90;0.90;;;14.90;99.90;;;;;;5018372;28;20070;-64
2023/08/04 05:24:50;;;;;;;3.88;0.75;;;15.00;99.90;;;;;;5015480;28;20267;-64
2023/08/04 05:27:16;;;;;;;2.55;0.88;;;15.10;99.90;;;;;;5033338;28;20554;-64
2023/08/04 05:29:41;;;;;;;2.47;0.50;;;15.00;99.90;;;;;;5035266;28;20049;-63
2023/08/04 05:32:07;;;;;;;2.25;0.60;;;15.20;99.90;;;;;;5033762;28;20045;-64
2023/08/04 05:34:33;;;;;;;1.50;0.43;;;15.30;99.90;;;;;;5031603;28;20048;-66
2023/08/04 05:36:58;;;;;;;2.03;0.50;;;15.40;99.90;;;;;;5014195;28;20426;-65
2023/08/04 05:39:24;;;;;;;1.23;0.50;;;15.20;99.90;;;;;;5014663;28;20444;-65
2023/08/04 05:41:50;;;;;;;2.45;0.65;;;15.30;99.90;;;;;;5032024;28;20087;-65
2023/08/04 05:44:16;;;;;;;3.25;0.80;;;15.40;99.90;;;;;;5015734;28;20287;-64
2023/08/04 05:46:51;;;;;;;2.17;0.65;;;15.50;99.90;;;;;;5023915;28;20487;-64
2023/08/04 05:49:32;;;;;;;2.55;0.57;;;15.40;99.90;;;;;;5049549;28;20101;-63
2023/08/04 05:51:59;;;;;;;2.03;0.50;;;15.50;99.90;;;;;;5039455;28;20049;-63
2023/08/04 05:54:24;;;;;;;2.92;0.63;;;15.80;99.90;;;;;;5036121;28;20509;-64
2023/08/04 05:56:50;;;;;;;1.23;0.60;;;15.80;99.90;;;;;;5034018;28;20549;-63
2023/08/04 05:59:16;;;;;;;2.03;0.57;;;15.70;99.90;;;;;;5037105;28;20047;-63
2023/08/04 06:01:41;;;;;;;2.97;0.65;;;15.80;99.90;;;;;;5035892;28;20041;-63
2023/08/04 06:04:07;;;;;;;3.28;0.70;;;15.90;99.90;;;;;;5034769;28;20095;-65
2023/08/04 06:06:33;;;;;;;2.20;0.60;;;16.00;99.90;;;;;;5038823;28;20190;-65
2023/08/04 06:08:58;;;;;;;4.82;0.80;;;16.00;99.90;;;;;;5037536;28;20056;-64
2023/08/04 06:11:24;;;;;;;4.85;1.05;;;16.20;99.90;;;;;;5037111;28;20051;-65
2023/08/04 06:13:51;;;;;;;5.30;1.00;;;16.20;99.90;;;;;;5019984;28;20063;-65
2023/08/04 06:16:16;;;;;;;4.43;0.90;;;16.30;99.90;;;;;;5039406;28;20041;-65
2023/08/04 06:18:43;;;;;;;2.40;0.95;;;16.20;99.90;;;;;;5034481;28;20048;-64
2023/08/04 06:21:09;;;;;;;3.83;1.02;;;16.30;99.90;;;;;;5020340;28;20499;-65
2023/08/04 06:23:35;;;;;;;2.30;0.82;;;16.30;99.90;;;;;;5023164;28;20044;-65
2023/08/04 06:26:00;;;;;;;4.22;1.25;;;16.30;99.90;;;;;;5036276;28;20045;-65
2023/08/04 06:28:26;;;;;;;4.63;1.20;;;16.30;99.90;;;;;;5019302;28;20044;-66
2023/08/04 06:30:51;;;;;;;5.25;1.42;;;16.20;99.90;;;;;;5037753;28;20052;-65
2023/08/04 06:33:17;;;;;;;3.05;1.30;;;16.40;99.90;;;;;;5036822;28;20320;-65
2023/08/04 06:35:44;;;;;;;5.20;1.00;;;16.40;99.90;;;;;;5017346;28;20136;-63
2023/08/04 06:38:10;;;;;;;4.32;1.20;;;16.40;99.90;;;;;;5035390;28;20057;-66
2023/08/04 06:40:35;;;;;;;6.47;1.40;;;16.50;99.90;;;;;;5038632;28;20288;-65
2023/08/04 06:43:01;;;;;;;4.60;1.48;;;16.50;99.90;;;;;;5036817;28;20434;-65
2023/08/04 06:45:28;;;;;;;7.47;1.30;;;16.70;99.90;;;;;;5011169;28;20037;-64
2023/08/04 06:47:54;;;;;;;5.57;1.08;;;16.70;99.90;;;;;;5018619;28;20045;-65
2023/08/04 06:50:20;;;;;;;5.53;1.05;;;16.70;99.90;;;;;;5035596;28;20052;-64
2023/08/04 06:52:47;;;;;;;4.80;1.13;;;16.80;99.90;;;;;;5036260;28;20253;-65
2023/08/04 06:55:12;;;;;;;5.30;1.30;;;16.80;99.90;;;;;;5037036;28;20046;-65
2023/08/04 06:57:38;;;;;;;4.93;1.35;;;16.80;99.90;;;;;;5023238;28;20580;-65
2023/08/04 07:00:04;;;;;;;6.13;1.25;;;16.80;99.90;;;;;;5022044;28;20093;-66
2023/08/04 07:02:30;;;;;;;5.53;1.10;;;16.70;99.90;;;;;;5002141;28;20565;-65
2023/08/04 07:04:56;;;;;;;7.32;1.45;;;16.70;99.90;;;;;;5015165;28;20041;-66
2023/08/04 07:07:21;;;;;;;6.85;1.35;;;16.80;99.90;;;;;;5034638;28;20052;-64
2023/08/04 07:09:47;;;;;;;5.38;1.35;;;16.80;99.90;;;;;;5038734;28;20176;-64
2023/08/04 07:12:13;;;;;;;4.47;1.20;;;17.00;99.90;;;;;;5036386;28;20310;-65
2023/08/04 07:14:38;;;;;;;5.97;1.30;;;17.10;99.90;;;;;;5036662;28;20307;-65
2023/08/04 07:17:04;;;;;;;5.70;1.40;;;17.20;99.90;;;;;;5036233;28;21246;-66
2023/08/04 07:19:30;;;;;;;3.90;1.05;;;17.30;99.90;;;;;;5038759;28;20062;-63
2023/08/04 07:21:55;;;;;;;6.05;0.85;;;17.40;99.90;;;;;;5036807;28;20299;-65
2023/08/04 07:24:21;;;;;;;6.90;1.17;;;17.60;99.90;;;;;;5035295;28;20446;-65
2023/08/04 07:26:47;;;;;;;7.85;1.25;;;17.90;99.90;;;;;;5021822;28;20122;-64
2023/08/04 07:29:13;;;;;;;7.47;0.93;;;17.80;99.90;;;;;;5036817;28;20037;-66
2023/08/04 07:31:39;;;;;;;5.65;1.00;;;18.00;99.90;;;;;;5036864;28;20041;-64
2023/08/04 07:34:04;;;;;;;3.42;0.47;;;18.00;99.90;;;;;;5001583;28;20075;-65
2023/08/04 07:36:30;;;;;;;3.45;0.60;;;18.00;99.90;;;;;;5035903;28;20051;-64
2023/08/04 07:38:56;;;;;;;2.05;0.40;;;18.10;99.90;;;;;;5023158;28;20048;-64
2023/08/04 07:41:24;;;;;;;3.58;0.50;;;18.10;99.90;;;;;;5018792;28;20282;-65
2023/08/04 07:43:50;;;;;;;5.10;0.60;;;18.10;99.90;;;;;;5035848;28;20041;-65
2023/08/04 07:46:24;;;;;;;3.75;0.50;;;18.10;99.90;;;;;;5035345;28;20185;-65
2023/08/04 07:48:51;;;;;;;4.13;0.70;;;18.10;99.90;;;;;;5034609;28;20414;-65
2023/08/04 07:51:17;;;;;;;6.97;1.40;;;18.10;99.90;;;;;;5032885;28;20048;-66
2023/08/04 07:53:43;;;;;;;5.18;0.75;;;18.10;99.90;;;;;;5017534;28;20036;-65
2023/08/04 07:56:10;;;;;;;7.10;1.08;;;18.20;99.90;;;;;;5039033;28;20048;-65
2023/08/04 07:58:36;;;;;;;5.00;0.65;;;18.00;99.90;;;;;;5019237;28;20059;-64
2023/08/04 08:01:03;;;;;;;9.35;1.30;;;18.00;99.90;;;;;;5017889;28;20029;-65
2023/08/04 08:03:31;;;;;;;11.77;1.58;;;18.00;99.90;;;;;;5034551;28;20128;-65
2023/08/04 08:05:57;;;;;;;6.22;1.17;;;17.70;99.90;;;;;;5014198;28;20044;-66
2023/08/04 08:08:22;;;;;;;7.43;1.30;;;17.50;99.90;;;;;;5014680;28;20171;-65
2023/08/04 08:10:48;;;;;;;5.88;1.30;;;17.40;99.90;;;;;;5037274;28;20044;-66
2023/08/04 08:13:14;;;;;;;6.43;1.30;;;17.20;99.90;;;;;;5016113;28;20329;-65
2023/08/04 08:15:39;;;;;;;4.07;0.77;;;17.00;99.90;;;;;;5012808;28;20099;-65
2023/08/04 08:18:05;;;;;;;7.75;1.17;;;16.90;99.90;;;;;;5016156;28;20334;-65
2023/08/04 08:20:31;;;;;;;5.38;1.20;;;16.80;99.90;;;;;;5013425;28;20043;-65
2023/08/04 08:22:56;;;;;;;7.20;1.38;;;16.80;99.90;;;;;;5032880;28;20040;-65
2023/08/04 08:25:22;;;;;;;4.78;1.20;;;16.90;99.90;;;;;;5017467;28;20033;-65
2023/08/04 08:27:48;;;;;;;5.95;1.50;;;17.10;99.90;;;;;;5016431;28;20119;-65
2023/08/04 08:30:14;;;;;;;10.52;1.40;;;17.20;99.90;;;;;;5019916;28;20048;-65
2023/08/04 08:32:39;;;;;;;7.50;1.55;;;17.80;99.90;;;;;;5031560;28;20548;-66
2023/08/04 08:35:06;;;;;;;9.23;1.50;;;18.70;99.90;;;;;;5038698;28;20370;-65
2023/08/04 08:37:31;;;;;;;5.57;0.95;;;19.20;99.90;;;;;;5031939;28;20616;-64
2023/08/04 08:39:57;;;;;;;3.20;0.60;;;19.20;99.90;;;;;;5037453;28;20179;-65
2023/08/04 08:42:23;;;;;;;4.82;0.50;;;19.50;99.90;;;;;;5036277;28;20044;-65
2023/08/04 08:44:49;;;;;;;5.13;0.52;;;20.00;99.90;;;;;;5033614;28;20041;-65
2023/08/04 08:47:16;;;;;;;5.90;0.65;;;20.30;99.90;;;;;;5034497;28;20605;-66
2023/08/04 08:49:50;;;;;;;6.95;0.60;;;20.60;99.90;;;;;;5034154;28;20437;-66
2023/08/04 08:52:18;;;;;;;5.63;0.60;;;21.00;99.90;;;;;;5034182;28;20087;-66
2023/08/04 08:54:44;;;;;;;6.13;0.45;;;21.20;99.90;;;;;;5034136;28;20055;-66
2023/08/04 08:57:11;;;;;;;4.55;0.57;;;20.90;99.90;;;;;;5035538;28;20037;-65
2023/08/04 08:59:37;;;;;;;5.25;0.55;;;20.80;99.90;;;;;;5016731;28;20183;-66
2023/08/04 09:02:02;;;;;;;5.13;0.50;;;20.10;99.90;;;;;;5037506;28;20087;-67
2023/08/04 09:04:33;;;;;;;7.20;0.50;;;20.40;99.90;;;;;;5036774;28;20037;-67
2023/08/04 09:06:59;;;;;;;4.40;0.50;;;20.30;99.90;;;;;;5033248;28;20406;-67
2023/08/04 09:09:25;;;;;;;5.05;0.50;;;20.60;99.90;;;;;;5033601;28;20437;-66
2023/08/04 09:11:51;;;;;;;5.15;0.43;;;20.80;99.90;;;;;;5019415;28;20048;-65
2023/08/04 09:14:17;;;;;;;4.75;0.60;;;20.90;99.90;;;;;;5033013;28;20159;-64
2023/08/04 09:16:43;;;;;;;5.22;0.60;;;20.40;99.90;;;;;;5022552;28;20050;-65
2023/08/04 09:19:09;;;;;;;4.85;0.50;;;20.30;99.90;;;;;;5033629;28;20100;-65
2023/08/04 09:21:37;;;;;;;2.42;0.22;;;20.60;99.90;;;;;;5039398;28;20091;-64
2023/08/04 09:24:04;;;;;;;4.70;0.40;;;21.20;99.90;;;;;;5021585;28;20040;-64
2023/08/04 09:26:49;;;;;;;4.43;0.40;;;21.30;99.90;;;;;;5035571;28;20052;-64
2023/08/04 09:29:15;;;;;;;3.97;0.30;;;21.90;99.90;;;;;;5035449;28;20060;-65
2023/08/04 09:31:46;;;;;;;5.10;0.40;;;21.80;99.90;;;;;;5023809;28;20040;-66
2023/08/04 09:34:11;;;;;;;4.18;0.30;;;21.30;99.90;;;;;;5035089;28;20051;-65
2023/08/04 09:36:42;;;;;;;4.70;0.40;;;20.70;99.90;;;;;;5037817;28;20040;-65
2023/08/04 09:39:09;;;;;;;4.40;0.40;;;20.40;99.90;;;;;;5038051;28;20311;-65
2023/08/04 09:41:41;;;;;;;5.32;0.50;;;21.00;99.90;;;;;;5035119;28;20050;-65
2023/08/04 09:44:07;;;;;;;6.53;0.70;;;21.60;99.90;;;;;;5035951;28;20048;-65
2023/08/04 09:46:39;;;;;;;3.45;0.30;;;22.00;99.90;;;;;;5019012;28;20113;-65
2023/08/04 09:49:05;;;;;;;3.33;0.30;;;21.60;98.60;;;;;;5038838;28;20049;-65
2023/08/04 09:51:39;;;;;;;5.90;0.60;;;21.20;99.90;;;;;;5036789;28;20296;-65
2023/08/04 09:54:04;;;;;;;4.40;0.50;;;20.90;99.90;;;;;;5017933;28;20361;-64
2023/08/04 09:56:32;;;;;;;5.65;0.60;;;20.70;99.90;;;;;;5035215;28;20044;-65
2023/08/04 09:58:58;;;;;;;7.80;0.75;;;20.70;99.90;;;;;;5037974;28;20530;-65
2023/08/04 10:01:25;;;;;;;8.63;0.80;;;20.60;99.90;;;;;;5019560;28;20651;-65
2023/08/04 10:03:53;;;;;;;5.72;0.50;;;21.50;99.90;;;;;;5038737;28;20037;-65
2023/08/04 10:06:20;;;;;;;3.70;0.52;;;21.50;99.90;;;;;;5022025;28;20155;-66
2023/08/04 10:08:48;;;;;;;5.32;0.52;;;20.60;99.90;;;;;;5041356;28;20052;-65
2023/08/04 10:11:14;;;;;;;8.00;0.70;;;20.30;99.90;;;;;;5037077;28;20270;-65
2023/08/04 10:13:42;;;;;;;5.63;0.60;;;20.30;99.90;;;;;;5034987;28;20049;-65
2023/08/04 10:16:13;;;;;;;8.18;0.65;;;20.00;99.90;;;;;;5036678;28;20049;-65
2023/08/04 10:19:06;;;;;;;6.53;0.65;;;20.00;99.90;;;;;;5034313;28;20294;-63
2023/08/04 10:21:40;;;;;;;6.53;0.60;;;20.50;99.90;;;;;;5037948;28;20554;-65
2023/08/04 10:24:08;;;;;;;4.10;0.40;;;21.00;99.90;;;;;;5037680;28;20055;-65
2023/08/04 10:26:43;;;;;;;6.47;0.60;;;21.40;99.90;;;;;;5037444;28;20059;-65
2023/08/04 10:29:09;;;;;;;5.32;0.60;;;21.80;99.90;;;;;;5039392;28;20294;-66
2023/08/04 10:31:51;;;;;;;5.13;0.40;;;22.20;94.60;;;;;;5034670;28;20049;-65
2023/08/04 10:34:25;;;;;;;3.93;0.30;;;22.10;71.80;;;;;;5036859;28;20118;-64
2023/08/04 10:37:12;;;;;;;4.88;0.40;;;21.60;70.30;;;;;;5022600;28;20577;-65
2023/08/04 10:39:44;;;;;;;6.22;0.55;;;21.40;89.80;;;;;;5036829;28;20041;-65
2023/08/04 10:42:12;;;;;;;6.13;0.55;;;21.40;90.50;;;;;;5036921;28;20040;-64
2023/08/04 10:44:55;;;;;;;3.88;0.38;;;22.10;99.60;;;;;;5036005;28;20048;-64
2023/08/04 10:47:46;;;;;;;4.97;0.40;;;21.70;90.70;;;;;;5022521;28;20111;-65
2023/08/04 10:50:13;;;;;;;3.83;0.35;;;21.60;81.90;;;;;;5037664;28;20306;-65
2023/08/04 10:52:40;;;;;;;4.53;0.40;;;21.40;91.30;;;;;;5039538;28;20457;-64
2023/08/04 10:55:09;;;;;;;2.13;0.30;;;21.80;92.50;;;;;;5036564;28;20449;-63
2023/08/04 10:57:37;;;;;;;4.63;0.30;;;21.90;67.90;;;;;;5049584;28;20486;-64
2023/08/04 11:00:08;;;;;;;4.10;0.40;;;21.40;71.90;;;;;;5019021;28;20354;-65
2023/08/04 11:02:36;;;;;;;2.47;0.30;;;22.00;89.20;;;;;;5036121;28;20049;-65
2023/08/04 11:05:06;;;;;;;2.50;0.63;;;22.30;74.50;;;;;;5040405;28;20320;-64
2023/08/04 11:07:32;;;;;;;3.20;0.35;;;22.40;52.30;;;;;;5036058;28;20045;-65
2023/08/04 11:10:04;;;;;;;2.88;0.30;;;22.20;43.50;;;;;;5034282;28;20047;-66
2023/08/04 11:12:29;;;;;;;2.08;0.30;;;22.70;40.40;;;;;;5033994;28;20177;-64
2023/08/04 11:14:55;;;;;;;4.03;0.30;;;23.50;42.20;;;;;;5033628;28;20602;-66
2023/08/04 11:17:21;;;;;;;2.55;0.20;;;23.30;20.90;;;;;;5018116;28;20110;-65
2023/08/04 11:19:48;;;;;;;2.60;0.40;;;23.20;1.00;;;;;;5036259;28;20362;-65
2023/08/04 11:22:23;;;;;;;3.40;0.30;;;22.60;19.40;;;;;;5010915;28;20151;-63
2023/08/04 11:24:51;;;;;;;2.38;0.28;;;21.90;24.50;;;;;;5020935;28;20045;-65
2023/08/04 11:27:17;;;;;;;2.90;0.30;;;22.20;24.90;;;;;;5034595;28;20111;-65
2023/08/04 11:29:43;;;;;;;3.00;0.30;;;22.00;23.20;;;;;;5019091;28;20041;-64
2023/08/04 11:32:17;;;;;;;3.45;0.30;;;21.80;28.20;;;;;;5021913;28;20072;-65
2023/08/04 11:34:43;;;;;;;3.58;0.30;;;22.50;30.10;;;;;;5038900;28;20049;-65
2023/08/04 11:37:09;;;;;;;3.50;0.40;;;22.50;11.80;;;;;;5017348;28;20048;-65
2023/08/04 11:39:37;;;;;;;4.07;0.40;;;22.80;9.00;;;;;;5038943;28;20304;-66
2023/08/04 11:42:03;;;;;;;5.03;0.38;;;22.90;9.40;;;;;;5034455;28;20333;-65
2023/08/04 11:44:30;;;;;;;2.63;0.30;;;22.40;13.30;;;;;;5019800;28;20139;-66
2023/08/04 11:46:56;;;;;;;3.88;0.32;;;23.10;24.10;;;;;;5035024;28;20075;-65
2023/08/04 11:49:22;;;;;;;5.25;0.40;;;23.30;21.30;;;;;;5018446;28;20156;-66
2023/08/04 11:51:49;;;;;;;5.40;0.50;;;22.60;26.00;;;;;;5034661;28;20035;-66
2023/08/04 11:54:23;;;;;;;3.65;0.40;;;22.60;23.00;;;;;;5033024;28;20048;-65
2023/08/04 11:56:56;;;;;;;6.43;0.50;;;21.90;44.30;;;;;;5033354;28;20036;-66
2023/08/04 11:59:22;;;;;;;4.57;0.50;;;22.20;45.90;;;;;;5016385;28;20046;-66
2023/08/04 12:01:48;;;;;;;5.45;0.50;;;22.00;40.20;;;;;;5031851;28;20045;-64
2023/08/04 12:04:23;;;;;;;5.25;0.47;;;21.40;57.30;;;;;;5016327;28;20353;-64
2023/08/04 12:07:03;;;;;;;3.55;0.70;;;21.50;69.90;;;;;;5034750;28;20053;-66
2023/08/04 12:09:29;;;;;;;4.07;0.50;;;21.30;66.20;;;;;;5032391;28;20056;-65
2023/08/04 12:11:56;;;;;;;4.30;0.65;;;21.20;47.70;;;;;;5015401;28;20171;-64
2023/08/04 12:14:22;;;;;;;4.30;0.50;;;20.80;71.20;;;;;;5046658;28;20107;-65
2023/08/04 12:16:52;;;;;;;4.47;0.70;;;20.50;85.20;;;;;;5031959;28;20071;-64
2023/08/04 12:19:19;;;;;;;4.82;0.50;;;20.50;69.80;;;;;;5032203;28;20129;-65
2023/08/04 12:21:46;;;;;;;4.88;0.50;;;20.80;89.10;;;;;;5032447;28;20054;-65
2023/08/04 12:24:12;;;;;;;5.45;0.50;;;21.00;83.30;;;;;;5037024;28;20410;-66
2023/08/04 12:26:38;;;;;;;2.80;0.40;;;21.40;81.00;;;;;;5031802;28;20044;-64
2023/08/04 12:29:04;;;;;;;3.40;0.30;;;22.00;62.20;;;;;;5013038;28;20045;-64
2023/08/04 12:31:29;;;;;;;3.92;0.50;;;21.80;42.10;;;;;;5032358;28;20130;-64
2023/08/04 12:33:55;;;;;;;2.67;0.40;;;21.50;44.20;;;;;;5016995;28;20049;-65
2023/08/04 12:36:20;;;;;;;3.88;0.38;;;21.40;44.10;;;;;;5018519;28;20043;-64
2023/08/04 12:38:47;;;;;;;4.70;0.40;;;21.40;29.00;;;;;;5034079;28;20049;-64
2023/08/04 12:41:13;;;;;;;2.05;0.30;;;21.70;42.00;;;;;;5032494;28;20259;-65
2023/08/04 12:43:39;;;;;;;3.10;0.20;;;21.40;34.00;;;;;;5012819;28;20183;-64
2023/08/04 12:46:04;;;;;;;2.72;0.30;;;21.60;43.50;;;;;;5036403;28;20037;-65